Time,TemperatureF,DewpointF,PressureIn,WindDirection,WindDirectionDegrees,WindSpeedMPH,WindSpeedGustMPH,Humidity,HourlyPrecipIn,Conditions,Clouds,dailyrainin,SoftwareType,DateUTC
2013-10-13 00:12:00,64.0,48.0,30.14,North,0,0.0,-999.0,55,-99.99,,,-99.99,,2013-10-13 00:12:00,
2013-10-13 00:22:00,61.0,48.0,30.14,North,360,3.0,-999.0,63,-99.99,,,-99.99,,2013-10-13 00:22:00,
2013-10-13 00:52:00,59.0,48.0,30.16,North,0,0.0,-999.0,67,-99.99,,,-99.99,,2013-10-13 00:52:00,
2013-10-13 01:12:00,55.0,48.0,30.17,NNW,340,3.0,-999.0,76,-99.99,,,-99.99,,2013-10-13 01:12:00,
2013-10-13 01:22:00,57.0,48.0,30.17,North,0,0.0,-999.0,71,-99.99,,,-99.99,,2013-10-13 01:22:00,
2013-10-13 01:52:00,54.0,48.0,30.18,North,0,0.0,-999.0,81,-99.99,,,-99.99,,2013-10-13 01:52:00,
2013-10-13 02:12:00,55.0,48.0,30.18,NNW,340,3.0,-999.0,76,-99.99,,,-99.99,,2013-10-13 02:12:00,
2013-10-13 02:22:00,54.0,48.0,30.19,North,350,3.0,-999.0,81,-99.99,,,-99.99,,2013-10-13 02:22:00,
2013-10-13 02:52:00,57.0,45.0,30.20,North,360,5.0,-999.0,62,-99.99,,,-99.99,,2013-10-13 02:52:00,
2013-10-13 03:12:00,57.0,45.0,30.21,North,360,3.0,-999.0,62,-99.99,,,-99.99,,2013-10-13 03:12:00,
2013-10-13 03:22:00,57.0,45.0,30.22,North,0,0.0,-999.0,62,-99.99,,,-99.99,,2013-10-13 03:22:00,
2013-10-13 03:54:00,55.0,43.0,30.21,North,10,5.0,-999.0,62,-99.99,,,-99.99,,2013-10-13 03:54:00,
2013-10-13 04:02:00,-999.0,-99.9,30.22,North,10,5.0,-999.0,-999,-99.99,,,-99.99,,2013-10-13 04:02:00,
2013-10-13 04:14:00,55.0,43.0,30.22,North,10,5.0,-999.0,62,-99.99,,,-99.99,,2013-10-13 04:14:00,
2013-10-13 04:23:00,55.0,43.0,30.22,North,10,3.0,-999.0,62,-99.99,,,-99.99,,2013-10-13 04:23:00,
2013-10-13 04:54:00,54.0,43.0,30.23,North,0,0.0,-999.0,66,-99.99,,,-99.99,,2013-10-13 04:54:00,
2013-10-13 05:12:00,54.0,43.0,30.23,North,360,5.0,-999.0,66,-99.99,,,-99.99,,2013-10-13 05:12:00,
2013-10-13 05:23:00,54.0,43.0,30.23,North,360,5.0,-999.0,66,-99.99,,,-99.99,,2013-10-13 05:23:00,
2013-10-13 05:52:00,54.0,43.0,30.24,North,10,5.0,-999.0,66,-99.99,,,-99.99,,2013-10-13 05:52:00,
2013-10-13 06:12:00,54.0,43.0,30.24,NNE,20,5.0,-999.0,66,-99.99,,,-99.99,,2013-10-13 06:12:00,
2013-10-13 06:22:00,52.0,43.0,30.25,North,10,5.0,-999.0,71,-99.99,,,-99.99,,2013-10-13 06:22:00,
2013-10-13 06:52:00,52.0,41.0,30.26,NNE,30,5.0,-999.0,66,-99.99,,,-99.99,,2013-10-13 06:52:00,
2013-10-13 07:11:00,52.0,41.0,30.27,NE,50,3.0,-999.0,66,-99.99,,,-99.99,,2013-10-13 07:11:00,
2013-10-13 07:22:00,52.0,41.0,30.27,NE,40,5.0,-999.0,66,-99.99,,,-99.99,,2013-10-13 07:22:00,
2013-10-13 07:52:00,52.0,41.0,30.28,NE,50,5.0,-999.0,66,-99.99,,,-99.99,,2013-10-13 07:52:00,
2013-10-13 08:12:00,54.0,41.0,30.28,NE,40,6.0,-999.0,62,-99.99,,,-99.99,,2013-10-13 08:12:00,
2013-10-13 08:22:00,54.0,41.0,30.28,NE,40,7.0,-999.0,62,-99.99,,,-99.99,,2013-10-13 08:22:00,
2013-10-13 08:52:00,54.0,41.0,30.27,NE,50,8.0,-999.0,62,-99.99,,,-99.99,,2013-10-13 08:52:00,
2013-10-13 09:11:00,54.0,39.0,30.28,NE,50,8.0,-999.0,58,-99.99,,,-99.99,,2013-10-13 09:11:00,
2013-10-13 09:22:00,54.0,39.0,30.28,ENE,60,6.0,-999.0,58,-99.99,,,-99.99,,2013-10-13 09:22:00,
2013-10-13 09:53:00,54.0,39.0,30.28,ENE,60,8.0,-999.0,58,-99.99,,,-99.99,,2013-10-13 09:53:00,
2013-10-13 10:13:00,54.0,39.0,30.28,ENE,60,8.0,-999.0,58,-99.99,,,-99.99,,2013-10-13 10:13:00,
2013-10-13 10:23:00,52.0,39.0,30.28,ENE,60,7.0,-999.0,61,-99.99,,,-99.99,,2013-10-13 10:23:00,
2013-10-13 10:53:00,52.0,39.0,30.30,NE,50,6.0,-999.0,61,-99.99,,,-99.99,,2013-10-13 10:53:00,
2013-10-13 11:12:00,52.0,39.0,30.31,ENE,70,5.0,-999.0,61,-99.99,,,-99.99,,2013-10-13 11:12:00,
2013-10-13 11:22:00,52.0,39.0,30.31,NE,50,5.0,-999.0,61,-99.99,,,-99.99,,2013-10-13 11:22:00,
2013-10-13 11:52:00,50.0,39.0,30.32,ENE,60,6.0,-999.0,66,-99.99,,,-99.99,,2013-10-13 11:52:00,
2013-10-13 12:12:00,50.0,39.0,30.33,ENE,60,7.0,-999.0,66,-99.99,,,-99.99,,2013-10-13 12:12:00,
2013-10-13 12:21:00,50.0,39.0,30.34,ENE,60,6.0,-999.0,66,-99.99,,,-99.99,,2013-10-13 12:21:00,
2013-10-13 12:52:00,50.0,39.0,30.34,ENE,70,6.0,-999.0,66,-99.99,,,-99.99,,2013-10-13 12:52:00,
2013-10-13 13:12:00,50.0,39.0,30.34,ENE,70,5.0,-999.0,66,-99.99,,,-99.99,,2013-10-13 13:12:00,
2013-10-13 13:22:00,52.0,39.0,30.35,ENE,60,5.0,-999.0,61,-99.99,,,-99.99,,2013-10-13 13:22:00,
2013-10-13 14:52:00,59.0,39.0,30.38,East,80,7.0,-999.0,47,-99.99,,,-99.99,,2013-10-13 14:52:00,
2013-10-13 15:22:00,59.0,39.0,30.39,East,90,10.0,-999.0,47,-99.99,,,-99.99,,2013-10-13 15:22:00,
2013-10-13 15:54:00,59.0,39.0,30.40,East,100,8.0,-999.0,47,-99.99,,,-99.99,,2013-10-13 15:54:00,
2013-10-13 16:12:00,59.0,39.0,30.40,East,100,6.0,-999.0,47,-99.99,,,-99.99,,2013-10-13 16:12:00,
2013-10-13 16:24:00,61.0,41.0,30.40,East,100,8.0,-999.0,48,-99.99,,,-99.99,,2013-10-13 16:24:00,
2013-10-13 16:54:00,63.0,41.0,30.40,East,80,9.0,-999.0,45,-99.99,,,-99.99,,2013-10-13 16:54:00,
2013-10-13 17:13:00,63.0,41.0,30.40,East,80,8.0,-999.0,45,-99.99,,,-99.99,,2013-10-13 17:13:00,
2013-10-13 17:22:00,63.0,37.0,30.40,ENE,60,9.0,-999.0,39,-99.99,,,-99.99,,2013-10-13 17:22:00,
2013-10-13 17:52:00,64.0,37.0,30.39,ENE,70,10.0,-999.0,36,-99.99,,,-99.99,,2013-10-13 17:52:00,
2013-10-13 18:12:00,64.0,37.0,30.39,ENE,70,8.0,-999.0,36,-99.99,,,-99.99,,2013-10-13 18:12:00,
2013-10-13 18:22:00,66.0,39.0,30.39,ENE,60,7.0,-999.0,37,-99.99,,,-99.99,,2013-10-13 18:22:00,
2013-10-13 18:52:00,68.0,39.0,30.37,ENE,70,7.0,-999.0,34,-99.99,,,-99.99,,2013-10-13 18:52:00,
2013-10-13 19:11:00,68.0,37.0,30.36,NNE,30,8.0,-999.0,32,-99.99,,,-99.99,,2013-10-13 19:11:00,
2013-10-13 19:22:00,70.0,39.0,30.36,NE,50,8.0,-999.0,32,-99.99,,,-99.99,,2013-10-13 19:22:00,
2013-10-13 19:52:00,70.0,39.0,30.34,East,80,7.0,-999.0,32,-99.99,,,-99.99,,2013-10-13 19:52:00,
2013-10-13 20:12:00,70.0,37.0,30.34,East,90,8.0,-999.0,30,-99.99,,,-99.99,,2013-10-13 20:12:00,
2013-10-13 20:22:00,72.0,37.0,30.33,ENE,60,7.0,-999.0,28,-99.99,,,-99.99,,2013-10-13 20:22:00,
2013-10-13 20:52:00,68.0,37.0,30.33,ENE,70,7.0,16.0,32,-99.99,,,-99.99,,2013-10-13 20:52:00,
2013-10-13 21:11:00,68.0,37.0,30.32,ENE,60,9.0,-999.0,32,-99.99,,,-99.99,,2013-10-13 21:11:00,
2013-10-13 21:21:00,70.0,37.0,30.32,NE,40,9.0,-999.0,30,-99.99,,,-99.99,,2013-10-13 21:21:00,
2013-10-13 21:55:00,70.0,37.0,30.31,NE,50,10.0,-999.0,30,-99.99,,,-99.99,,2013-10-13 21:55:00,
2013-10-13 22:13:00,70.0,37.0,30.31,ENE,70,8.0,-999.0,30,-99.99,,,-99.99,,2013-10-13 22:13:00,
2013-10-13 22:24:00,68.0,37.0,30.31,ENE,60,6.0,-999.0,32,-99.99,,,-99.99,,2013-10-13 22:24:00,
2013-10-13 22:53:00,68.0,39.0,30.30,NE,50,6.0,-999.0,34,-99.99,,,-99.99,,2013-10-13 22:53:00,
2013-10-13 23:12:00,68.0,39.0,30.30,ENE,70,5.0,-999.0,34,-99.99,,,-99.99,,2013-10-13 23:12:00,
2013-10-13 23:22:00,66.0,43.0,30.30,North,0,0.0,-999.0,42,-99.99,,,-99.99,,2013-10-13 23:22:00,
2013-10-13 23:52:00,63.0,45.0,30.31,North,0,0.0,-999.0,51,-99.99,,,-99.99,,2013-10-13 23:52:00,